sensor_id;sensor_type;location;lat;lon;timestamp;pressure;altitude;pressure_sealevel;temperature;humidity
68859;BME280;55864;49.238;8.092;2023-01-29T00:00:46;100708.44;;;1.01;68.09
68859;BME280;55864;49.238;8.092;2023-01-29T00:02:46;100714.41;;;1.03;68.42
68859;BME280;55864;49.238;8.092;2023-01-29T00:04:47;100708.44;;;1.02;68.56
68859;BME280;55864;49.238;8.092;2023-01-29T00:06:49;100711.84;;;1.03;68.51
68859;BME280;55864;49.238;8.092;2023-01-29T00:08:49;100715.22;;;1.05;67.72
68859;BME280;55864;49.238;8.092;2023-01-29T00:10:50;100715.34;;;1.02;68.42
68859;BME280;55864;49.238;8.092;2023-01-29T00:12:50;100715.28;;;1.03;68.44
68859;BME280;55864;49.238;8.092;2023-01-29T00:14:51;100709.38;;;1.00;67.98
68859;BME280;55864;49.238;8.092;2023-01-29T00:16:51;100714.53;;;1.00;68.31
68859;BME280;55864;49.238;8.092;2023-01-29T00:18:52;100709.47;;;0.97;68.20
68859;BME280;55864;49.238;8.092;2023-01-29T00:20:53;100711.34;;;0.91;68.64
68859;BME280;55864;49.238;8.092;2023-01-29T00:22:56;100710.75;;;0.83;68.75
68859;BME280;55864;49.238;8.092;2023-01-29T00:24:56;100709.97;;;0.81;69.34
68859;BME280;55864;49.238;8.092;2023-01-29T00:26:57;100707.63;;;0.74;69.82
68859;BME280;55864;49.238;8.092;2023-01-29T00:28:57;100696.59;;;0.69;69.46
68859;BME280;55864;49.238;8.092;2023-01-29T00:30:59;100690.75;;;0.64;69.54
68859;BME280;55864;49.238;8.092;2023-01-29T00:33:05;100697.34;;;0.72;69.99
68859;BME280;55864;49.238;8.092;2023-01-29T00:35:07;100691.13;;;0.78;69.99
68859;BME280;55864;49.238;8.092;2023-01-29T00:37:08;100698.06;;;0.77;69.80
68859;BME280;55864;49.238;8.092;2023-01-29T00:39:10;100688.59;;;0.76;69.28
68859;BME280;55864;49.238;8.092;2023-01-29T00:43:12;100694.75;;;0.72;69.42
68859;BME280;55864;49.238;8.092;2023-01-29T00:45:12;100688.78;;;0.70;69.87
68859;BME280;55864;49.238;8.092;2023-01-29T00:47:13;100700.13;;;0.66;70.19
68859;BME280;55864;49.238;8.092;2023-01-29T00:49:13;100696.78;;;0.64;69.96
68859;BME280;55864;49.238;8.092;2023-01-29T00:51:14;100692.59;;;0.60;70.13
68859;BME280;55864;49.238;8.092;2023-01-29T00:53:14;100695.31;;;0.56;70.82
68859;BME280;55864;49.238;8.092;2023-01-29T00:55:17;100697.97;;;0.54;70.16
68859;BME280;55864;49.238;8.092;2023-01-29T00:57:17;100697.16;;;0.52;70.21
68859;BME280;55864;49.238;8.092;2023-01-29T00:59:18;100697.22;;;0.51;70.48
68859;BME280;55864;49.238;8.092;2023-01-29T01:01:18;100702.41;;;0.49;70.00
68859;BME280;55864;49.238;8.092;2023-01-29T01:03:19;100693.72;;;0.52;70.55
68859;BME280;55864;49.238;8.092;2023-01-29T01:05:21;100703.19;;;0.53;70.10
68859;BME280;55864;49.238;8.092;2023-01-29T01:07:21;100702.47;;;0.48;70.09
68859;BME280;55864;49.238;8.092;2023-01-29T01:09:22;100701.72;;;0.44;70.51
68859;BME280;55864;49.238;8.092;2023-01-29T01:11:23;100699.19;;;0.43;69.93
68859;BME280;55864;49.238;8.092;2023-01-29T01:13:24;100704.41;;;0.41;70.12
68859;BME280;55864;49.238;8.092;2023-01-29T01:15:27;100698.53;;;0.36;69.57
68859;BME280;55864;49.238;8.092;2023-01-29T01:17:28;100698.63;;;0.33;70.48
68859;BME280;55864;49.238;8.092;2023-01-29T01:19:29;100711.44;;;0.36;70.52
68859;BME280;55864;49.238;8.092;2023-01-29T01:21:29;100713.22;;;0.34;70.55
68859;BME280;55864;49.238;8.092;2023-01-29T01:23:30;100712.47;;;0.32;70.74
68859;BME280;55864;49.238;8.092;2023-01-29T01:25:30;100710.84;;;0.28;70.52
68859;BME280;55864;49.238;8.092;2023-01-29T01:27:32;100708.13;;;0.33;70.51
68859;BME280;55864;49.238;8.092;2023-01-29T01:29:33;100719.31;;;0.33;70.34
68859;BME280;55864;49.238;8.092;2023-01-29T01:31:33;100724.56;;;0.30;70.37
68859;BME280;55864;49.238;8.092;2023-01-29T01:33:34;100729.75;;;0.30;70.56
68859;BME280;55864;49.238;8.092;2023-01-29T01:35:37;100715.22;;;0.26;70.94
68859;BME280;55864;49.238;8.092;2023-01-29T01:37:38;100719.44;;;0.29;70.46
68859;BME280;55864;49.238;8.092;2023-01-29T01:39:38;100716.84;;;0.29;70.73
68859;BME280;55864;49.238;8.092;2023-01-29T01:41:39;100721.19;;;0.28;70.52
68859;BME280;55864;49.238;8.092;2023-01-29T01:43:49;100716.03;;;0.28;70.84
68859;BME280;55864;49.238;8.092;2023-01-29T01:45:50;100712.53;;;0.29;70.83
68859;BME280;55864;49.238;8.092;2023-01-29T01:47:54;100715.91;;;0.31;70.77
68859;BME280;55864;49.238;8.092;2023-01-29T01:50:00;100712.53;;;0.29;70.84
68859;BME280;55864;49.238;8.092;2023-01-29T01:52:01;100706.50;;;0.29;71.00
68859;BME280;55864;49.238;8.092;2023-01-29T01:54:04;100698.81;;;0.27;70.95
68859;BME280;55864;49.238;8.092;2023-01-29T01:56:10;100705.63;;;0.30;71.45
68859;BME280;55864;49.238;8.092;2023-01-29T01:58:16;100704.69;;;0.32;71.15
68859;BME280;55864;49.238;8.092;2023-01-29T02:00:24;100702.13;;;0.32;71.14
68859;BME280;55864;49.238;8.092;2023-01-29T02:02:26;100709.03;;;0.32;70.52
68859;BME280;55864;49.238;8.092;2023-01-29T02:04:27;100708.97;;;0.33;70.38
68859;BME280;55864;49.238;8.092;2023-01-29T02:06:27;100708.03;;;0.36;70.66
68859;BME280;55864;49.238;8.092;2023-01-29T02:08:33;100708.84;;;0.36;70.70
68859;BME280;55864;49.238;8.092;2023-01-29T02:10:38;100702.00;;;0.35;70.56
68859;BME280;55864;49.238;8.092;2023-01-29T02:12:42;100699.53;;;0.32;70.88
68859;BME280;55864;49.238;8.092;2023-01-29T02:14:43;100695.25;;;0.31;70.80
68859;BME280;55864;49.238;8.092;2023-01-29T02:16:45;100701.25;;;0.32;70.09
68859;BME280;55864;49.238;8.092;2023-01-29T02:18:46;100700.31;;;0.34;70.75
68859;BME280;55864;49.238;8.092;2023-01-29T02:20:52;100703.63;;;0.39;70.69
68859;BME280;55864;49.238;8.092;2023-01-29T02:23:25;100698.53;;;0.36;70.91
68859;BME280;55864;49.238;8.092;2023-01-29T02:26:08;100684.91;;;0.31;70.65
68859;BME280;55864;49.238;8.092;2023-01-29T02:28:19;100695.00;;;0.39;71.18
68859;BME280;55864;49.238;8.092;2023-01-29T02:30:25;100699.31;;;0.38;70.57
68859;BME280;55864;49.238;8.092;2023-01-29T02:32:31;100697.34;;;0.46;70.67
68859;BME280;55864;49.238;8.092;2023-01-29T02:34:41;100695.66;;;0.45;70.43
68859;BME280;55864;49.238;8.092;2023-01-29T02:36:49;100680.09;;;0.47;70.62
68859;BME280;55864;49.238;8.092;2023-01-29T02:38:58;100681.09;;;0.43;70.38
68859;BME280;55864;49.238;8.092;2023-01-29T02:41:03;100682.88;;;0.41;70.92
68859;BME280;55864;49.238;8.092;2023-01-29T02:43:08;100675.88;;;0.44;70.18
68859;BME280;55864;49.238;8.092;2023-01-29T02:45:18;100675.69;;;0.50;70.03
68859;BME280;55864;49.238;8.092;2023-01-29T02:47:25;100672.16;;;0.53;69.54
68859;BME280;55864;49.238;8.092;2023-01-29T02:49:33;100676.47;;;0.52;69.51
68859;BME280;55864;49.238;8.092;2023-01-29T02:51:40;100667.88;;;0.52;69.39
68859;BME280;55864;49.238;8.092;2023-01-29T02:53:49;100666.28;;;0.48;69.63
68859;BME280;55864;49.238;8.092;2023-01-29T02:55:57;100669.84;;;0.44;70.03
68859;BME280;55864;49.238;8.092;2023-01-29T02:58:04;100672.59;;;0.39;70.02
68859;BME280;55864;49.238;8.092;2023-01-29T03:00:09;100673.59;;;0.35;69.69
68859;BME280;55864;49.238;8.092;2023-01-29T03:02:17;100674.47;;;0.34;69.55
68859;BME280;55864;49.238;8.092;2023-01-29T03:04:24;100670.22;;;0.33;69.73
68859;BME280;55864;49.238;8.092;2023-01-29T03:06:31;100669.41;;;0.31;69.75
68859;BME280;55864;49.238;8.092;2023-01-29T03:08:36;100662.56;;;0.30;70.12
68859;BME280;55864;49.238;8.092;2023-01-29T03:10:39;100667.81;;;0.27;70.57
68859;BME280;55864;49.238;8.092;2023-01-29T03:12:46;100671.31;;;0.26;70.04
68859;BME280;55864;49.238;8.092;2023-01-29T03:14:50;100669.53;;;0.28;70.42
68859;BME280;55864;49.238;8.092;2023-01-29T03:16:52;100673.66;;;0.34;69.71
68859;BME280;55864;49.238;8.092;2023-01-29T03:19:00;100671.88;;;0.34;69.08
68859;BME280;55864;49.238;8.092;2023-01-29T03:21:06;100665.03;;;0.33;68.53
68859;BME280;55864;49.238;8.092;2023-01-29T03:23:10;100663.38;;;0.32;68.64
68859;BME280;55864;49.238;8.092;2023-01-29T03:25:14;100670.34;;;0.29;69.44
68859;BME280;55864;49.238;8.092;2023-01-29T03:27:17;100664.25;;;0.31;70.10
68859;BME280;55864;49.238;8.092;2023-01-29T03:29:20;100668.41;;;0.35;69.15
68859;BME280;55864;49.238;8.092;2023-01-29T03:31:21;100663.25;;;0.35;69.63
68859;BME280;55864;49.238;8.092;2023-01-29T03:33:31;100667.63;;;0.33;69.28
68859;BME280;55864;49.238;8.092;2023-01-29T03:35:41;100671.19;;;0.29;69.28
68859;BME280;55864;49.238;8.092;2023-01-29T03:37:45;100670.44;;;0.26;69.36
68859;BME280;55864;49.238;8.092;2023-01-29T03:39:47;100686.88;;;0.23;69.83
68859;BME280;55864;49.238;8.092;2023-01-29T03:41:53;100682.50;;;0.25;69.63
68859;BME280;55864;49.238;8.092;2023-01-29T03:44:04;100679.97;;;0.24;69.63
68859;BME280;55864;49.238;8.092;2023-01-29T03:46:12;100687.69;;;0.25;69.94
68859;BME280;55864;49.238;8.092;2023-01-29T03:48:21;100685.16;;;0.24;68.98
68859;BME280;55864;49.238;8.092;2023-01-29T03:50:33;100691.31;;;0.20;68.43
68859;BME280;55864;49.238;8.092;2023-01-29T03:52:39;100689.66;;;0.17;68.24
68859;BME280;55864;49.238;8.092;2023-01-29T03:54:50;100693.94;;;0.18;69.07
68859;BME280;55864;49.238;8.092;2023-01-29T03:56:56;100691.34;;;0.18;69.59
68859;BME280;55864;49.238;8.092;2023-01-29T03:59:04;100691.31;;;0.20;70.08
68859;BME280;55864;49.238;8.092;2023-01-29T04:01:44;100688.81;;;0.17;70.37
68859;BME280;55864;49.238;8.092;2023-01-29T04:03:49;100688.03;;;0.15;70.48
68859;BME280;55864;49.238;8.092;2023-01-29T04:05:57;100683.72;;;0.14;71.03
68859;BME280;55864;49.238;8.092;2023-01-29T04:08:08;100682.00;;;0.14;70.92
68859;BME280;55864;49.238;8.092;2023-01-29T04:10:13;100689.63;;;0.19;71.16
68859;BME280;55864;49.238;8.092;2023-01-29T04:12:19;100691.97;;;0.26;70.47
68859;BME280;55864;49.238;8.092;2023-01-29T04:14:21;100689.34;;;0.28;70.53
68859;BME280;55864;49.238;8.092;2023-01-29T04:16:27;100692.84;;;0.25;71.07
68859;BME280;55864;49.238;8.092;2023-01-29T04:18:54;100697.31;;;0.20;71.24
68859;BME280;55864;49.238;8.092;2023-01-29T04:21:06;100704.28;;;0.18;71.34
68859;BME280;55864;49.238;8.092;2023-01-29T04:23:19;100707.78;;;0.16;71.26
68859;BME280;55864;49.238;8.092;2023-01-29T04:25:25;100713.81;;;0.16;71.41
68859;BME280;55864;49.238;8.092;2023-01-29T04:27:36;100709.53;;;0.15;71.63
68859;BME280;55864;49.238;8.092;2023-01-29T04:29:52;100711.22;;;0.16;71.35
68859;BME280;55864;49.238;8.092;2023-01-29T04:32:01;100702.56;;;0.17;70.98
68859;BME280;55864;49.238;8.092;2023-01-29T04:34:14;100705.19;;;0.16;70.98
68859;BME280;55864;49.238;8.092;2023-01-29T04:36:26;100704.28;;;0.18;71.17
68859;BME280;55864;49.238;8.092;2023-01-29T04:38:36;100689.56;;;0.20;70.82
68859;BME280;55864;49.238;8.092;2023-01-29T04:40:48;100688.66;;;0.21;70.05
68859;BME280;55864;49.238;8.092;2023-01-29T04:42:55;100685.94;;;0.26;69.43
68859;BME280;55864;49.238;8.092;2023-01-29T04:45:06;100691.06;;;0.27;69.08
68859;BME280;55864;49.238;8.092;2023-01-29T04:47:18;100687.38;;;0.34;69.05
68859;BME280;55864;49.238;8.092;2023-01-29T04:49:29;100689.66;;;0.45;69.17
68859;BME280;55864;49.238;8.092;2023-01-29T04:51:48;100693.16;;;0.42;69.24
68859;BME280;55864;49.238;8.092;2023-01-29T04:53:56;100701.03;;;0.39;69.20
68859;BME280;55864;49.238;8.092;2023-01-29T04:56:04;100684.72;;;0.37;69.51
68859;BME280;55864;49.238;8.092;2023-01-29T04:58:10;100683.78;;;0.40;69.53
68859;BME280;55864;49.238;8.092;2023-01-29T05:00:18;100683.63;;;0.44;69.71
68859;BME280;55864;49.238;8.092;2023-01-29T05:02:21;100678.56;;;0.41;68.90
68859;BME280;55864;49.238;8.092;2023-01-29T05:04:24;100668.38;;;0.37;68.59
68859;BME280;55864;49.238;8.092;2023-01-29T05:06:28;100650.44;;;0.32;68.43
68859;BME280;55864;49.238;8.092;2023-01-29T05:08:30;100649.72;;;0.27;68.88
68859;BME280;55864;49.238;8.092;2023-01-29T05:10:34;100655.88;;;0.23;69.35
68859;BME280;55864;49.238;8.092;2023-01-29T05:12:36;100663.88;;;0.16;69.25
68859;BME280;55864;49.238;8.092;2023-01-29T05:14:38;100671.53;;;0.19;69.86
68859;BME280;55864;49.238;8.092;2023-01-29T05:16:41;100664.44;;;0.25;69.43
68859;BME280;55864;49.238;8.092;2023-01-29T05:18:42;100662.66;;;0.27;69.14
68859;BME280;55864;49.238;8.092;2023-01-29T05:20:43;100656.50;;;0.31;68.39
68859;BME280;55864;49.238;8.092;2023-01-29T05:22:45;100651.25;;;0.33;67.72
68859;BME280;55864;49.238;8.092;2023-01-29T05:24:46;100657.47;;;0.27;67.73
68859;BME280;55864;49.238;8.092;2023-01-29T05:26:51;100661.53;;;0.34;69.05
68859;BME280;55864;49.238;8.092;2023-01-29T05:28:52;100664.19;;;0.33;69.17
68859;BME280;55864;49.238;8.092;2023-01-29T05:30:54;100651.44;;;0.28;69.30
68859;BME280;55864;49.238;8.092;2023-01-29T05:32:55;100662.75;;;0.24;69.88
68859;BME280;55864;49.238;8.092;2023-01-29T05:34:55;100670.56;;;0.23;69.29
68859;BME280;55864;49.238;8.092;2023-01-29T05:36:56;100679.06;;;0.25;69.61
68859;BME280;55864;49.238;8.092;2023-01-29T05:38:56;100671.31;;;0.26;69.77
68859;BME280;55864;49.238;8.092;2023-01-29T05:40:57;100682.56;;;0.24;69.08
68859;BME280;55864;49.238;8.092;2023-01-29T05:42:59;100679.28;;;0.19;69.84
68859;BME280;55864;49.238;8.092;2023-01-29T05:45:00;100685.19;;;0.22;70.07
68859;BME280;55864;49.238;8.092;2023-01-29T05:47:00;100681.63;;;0.26;69.86
68859;BME280;55864;49.238;8.092;2023-01-29T05:49:01;100692.78;;;0.27;69.05
68859;BME280;55864;49.238;8.092;2023-01-29T05:51:02;100699.72;;;0.26;69.20
68859;BME280;55864;49.238;8.092;2023-01-29T05:53:03;100696.97;;;0.32;69.24
68859;BME280;55864;49.238;8.092;2023-01-29T05:55:04;100696.03;;;0.33;69.30
68859;BME280;55864;49.238;8.092;2023-01-29T05:57:05;100691.69;;;0.35;69.03
68859;BME280;55864;49.238;8.092;2023-01-29T05:59:07;100696.97;;;0.32;69.40
68859;BME280;55864;49.238;8.092;2023-01-29T06:01:09;100696.22;;;0.27;69.43
68859;BME280;55864;49.238;8.092;2023-01-29T06:03:11;100693.66;;;0.27;69.39
68859;BME280;55864;49.238;8.092;2023-01-29T06:05:11;100696.22;;;0.27;69.06
68859;BME280;55864;49.238;8.092;2023-01-29T06:07:12;100699.75;;;0.25;69.40
68859;BME280;55864;49.238;8.092;2023-01-29T06:09:12;100687.78;;;0.22;69.95
68859;BME280;55864;49.238;8.092;2023-01-29T06:11:13;100691.31;;;0.20;69.89
68859;BME280;55864;49.238;8.092;2023-01-29T06:13:14;100680.91;;;0.21;70.02
68859;BME280;55864;49.238;8.092;2023-01-29T06:15:16;100682.69;;;0.21;70.20
68859;BME280;55864;49.238;8.092;2023-01-29T06:17:16;100681.81;;;0.20;69.89
68859;BME280;55864;49.238;8.092;2023-01-29T06:19:17;100674.94;;;0.21;69.67
68859;BME280;55864;49.238;8.092;2023-01-29T06:21:17;100666.41;;;0.17;69.00
68859;BME280;55864;49.238;8.092;2023-01-29T06:23:18;100664.78;;;0.15;68.48
68859;BME280;55864;49.238;8.092;2023-01-29T06:25:18;100661.44;;;0.11;68.15
68859;BME280;55864;49.238;8.092;2023-01-29T06:27:19;100670.13;;;0.09;68.17
68859;BME280;55864;49.238;8.092;2023-01-29T06:29:19;100670.06;;;0.10;68.97
68859;BME280;55864;49.238;8.092;2023-01-29T06:31:21;100672.59;;;0.12;68.64
68859;BME280;55864;49.238;8.092;2023-01-29T06:33:22;100680.47;;;0.09;68.89
68859;BME280;55864;49.238;8.092;2023-01-29T06:35:22;100689.06;;;0.09;69.68
68859;BME280;55864;49.238;8.092;2023-01-29T06:37:23;100689.00;;;0.11;69.38
68859;BME280;55864;49.238;8.092;2023-01-29T06:39:23;100695.03;;;0.11;69.15
68859;BME280;55864;49.238;8.092;2023-01-29T06:41:24;100699.00;;;0.21;69.34
68859;BME280;55864;49.238;8.092;2023-01-29T06:43:24;100698.97;;;0.23;68.56
68859;BME280;55864;49.238;8.092;2023-01-29T06:45:25;100703.28;;;0.22;68.51
68859;BME280;55864;49.238;8.092;2023-01-29T06:47:27;100693.09;;;0.18;68.49
68859;BME280;55864;49.238;8.092;2023-01-29T06:49:27;100690.59;;;0.15;68.60
68859;BME280;55864;49.238;8.092;2023-01-29T06:51:28;100701.88;;;0.12;68.59
68859;BME280;55864;49.238;8.092;2023-01-29T06:53:29;100693.13;;;0.16;69.28
68859;BME280;55864;49.238;8.092;2023-01-29T06:55:29;100694.88;;;0.16;69.14
68859;BME280;55864;49.238;8.092;2023-01-29T06:57:30;100689.66;;;0.17;69.25
68859;BME280;55864;49.238;8.092;2023-01-29T06:59:31;100685.38;;;0.16;68.73
68859;BME280;55864;49.238;8.092;2023-01-29T07:01:31;100677.63;;;0.16;68.92
68859;BME280;55864;49.238;8.092;2023-01-29T07:03:33;100684.47;;;0.19;69.16
68859;BME280;55864;49.238;8.092;2023-01-29T07:05:34;100686.31;;;0.14;69.09
68859;BME280;55864;49.238;8.092;2023-01-29T07:07:34;100682.00;;;0.14;69.43
68859;BME280;55864;49.238;8.092;2023-01-29T07:09:35;100676.91;;;0.13;69.14
68859;BME280;55864;49.238;8.092;2023-01-29T07:11:35;100676.19;;;0.08;69.34
68859;BME280;55864;49.238;8.092;2023-01-29T07:13:36;100677.13;;;0.05;70.41
68859;BME280;55864;49.238;8.092;2023-01-29T07:15:36;100665.88;;;0.06;70.35
68859;BME280;55864;49.238;8.092;2023-01-29T07:17:37;100664.22;;;0.05;70.29
68859;BME280;55864;49.238;8.092;2023-01-29T07:19:39;100677.13;;;0.05;70.36
68859;BME280;55864;49.238;8.092;2023-01-29T07:21:40;100676.38;;;0.02;70.89
68859;BME280;55864;49.238;8.092;2023-01-29T07:23:40;100683.28;;;0.01;71.39
68859;BME280;55864;49.238;8.092;2023-01-29T07:25:41;100678.09;;;0.01;71.30
68859;BME280;55864;49.238;8.092;2023-01-29T07:27:41;100683.22;;;0.03;71.69
68859;BME280;55864;49.238;8.092;2023-01-29T07:29:42;100691.72;;;0.06;71.59
68859;BME280;55864;49.238;8.092;2023-01-29T07:31:42;100698.78;;;0.01;72.10
68859;BME280;55864;49.238;8.092;2023-01-29T07:33:43;100705.59;;;0.02;71.54
68859;BME280;55864;49.238;8.092;2023-01-29T07:35:45;100709.78;;;0.06;71.38
68859;BME280;55864;49.238;8.092;2023-01-29T07:37:47;100708.00;;;0.08;71.33
68859;BME280;55864;49.238;8.092;2023-01-29T07:39:48;100695.16;;;0.07;71.45
68859;BME280;55864;49.238;8.092;2023-01-29T07:41:49;100697.75;;;0.07;71.68
68859;BME280;55864;49.238;8.092;2023-01-29T07:43:50;100703.75;;;0.07;71.37
68859;BME280;55864;49.238;8.092;2023-01-29T07:45:50;100702.97;;;0.05;71.27
68859;BME280;55864;49.238;8.092;2023-01-29T07:47:51;100716.63;;;0.09;71.02
68859;BME280;55864;49.238;8.092;2023-01-29T07:49:52;100708.97;;;0.06;70.80
68859;BME280;55864;49.238;8.092;2023-01-29T07:51:53;100701.91;;;0.11;70.93
68859;BME280;55864;49.238;8.092;2023-01-29T07:53:54;100697.31;;;0.20;71.21
68859;BME280;55864;49.238;8.092;2023-01-29T07:55:55;100705.94;;;0.21;70.40
68859;BME280;55864;49.238;8.092;2023-01-29T07:57:55;100706.91;;;0.17;70.87
68859;BME280;55864;49.238;8.092;2023-01-29T07:59:56;100710.38;;;0.16;70.34
68859;BME280;55864;49.238;8.092;2023-01-29T08:01:58;100713.91;;;0.13;70.04
68859;BME280;55864;49.238;8.092;2023-01-29T08:03:58;100713.19;;;0.08;69.46
68859;BME280;55864;49.238;8.092;2023-01-29T08:05:59;100717.59;;;0.05;69.34
68859;BME280;55864;49.238;8.092;2023-01-29T08:08:01;100716.09;;;-0.03;69.56
68859;BME280;55864;49.238;8.092;2023-01-29T08:10:02;100729.72;;;0.03;69.71
68859;BME280;55864;49.238;8.092;2023-01-29T08:12:03;100730.56;;;0.03;69.32
68859;BME280;55864;49.238;8.092;2023-01-29T08:14:03;100730.63;;;0.02;69.21
68859;BME280;55864;49.238;8.092;2023-01-29T08:16:05;100731.38;;;0.05;69.45
68859;BME280;55864;49.238;8.092;2023-01-29T08:18:05;100733.03;;;0.06;69.19
68859;BME280;55864;49.238;8.092;2023-01-29T08:20:07;100728.03;;;0.02;68.94
68859;BME280;55864;49.238;8.092;2023-01-29T08:22:07;100738.44;;;-0.02;68.42
68859;BME280;55864;49.238;8.092;2023-01-29T08:24:09;100735.94;;;-0.05;69.00
68859;BME280;55864;49.238;8.092;2023-01-29T08:26:10;100738.25;;;0.05;69.44
68859;BME280;55864;49.238;8.092;2023-01-29T08:28:10;100736.19;;;0.16;68.81
68859;BME280;55864;49.238;8.092;2023-01-29T08:30:12;100736.88;;;0.22;68.77
68859;BME280;55864;49.238;8.092;2023-01-29T08:32:12;100733.19;;;0.29;68.45
68859;BME280;55864;49.238;8.092;2023-01-29T08:34:13;100733.88;;;0.36;68.31
68859;BME280;55864;49.238;8.092;2023-01-29T08:36:14;100736.00;;;0.49;68.08
68859;BME280;55864;49.238;8.092;2023-01-29T08:38:14;100738.22;;;0.61;67.60
68859;BME280;55864;49.238;8.092;2023-01-29T08:40:17;100732.06;;;0.65;67.08
68859;BME280;55864;49.238;8.092;2023-01-29T08:42:17;100729.34;;;0.70;66.79
68859;BME280;55864;49.238;8.092;2023-01-29T08:44:18;100737.88;;;0.72;67.07
68859;BME280;55864;49.238;8.092;2023-01-29T08:46:18;100727.50;;;0.73;67.21
68859;BME280;55864;49.238;8.092;2023-01-29T08:48:19;100738.56;;;0.77;67.46
68859;BME280;55864;49.238;8.092;2023-01-29T08:50:19;100735.19;;;0.75;66.89
68859;BME280;55864;49.238;8.092;2023-01-29T08:52:20;100740.22;;;0.79;66.45
68859;BME280;55864;49.238;8.092;2023-01-29T08:54:20;100732.31;;;0.84;66.80
68859;BME280;55864;49.238;8.092;2023-01-29T08:56:22;100734.56;;;0.93;65.72
68859;BME280;55864;49.238;8.092;2023-01-29T08:58:23;100741.47;;;0.94;66.12
68859;BME280;55864;49.238;8.092;2023-01-29T09:00:23;100755.19;;;0.96;65.44
68859;BME280;55864;49.238;8.092;2023-01-29T09:02:24;100764.56;;;0.98;65.21
68859;BME280;55864;49.238;8.092;2023-01-29T09:04:24;100770.44;;;1.04;65.33
68859;BME280;55864;49.238;8.092;2023-01-29T09:06:25;100772.88;;;1.08;64.40
68859;BME280;55864;49.238;8.092;2023-01-29T09:08:25;100766.75;;;1.11;64.78
68859;BME280;55864;49.238;8.092;2023-01-29T09:10:26;100763.19;;;1.15;64.75
68859;BME280;55864;49.238;8.092;2023-01-29T09:12:28;100758.47;;;1.26;64.92
68859;BME280;55864;49.238;8.092;2023-01-29T09:14:29;100743.75;;;1.28;64.23
68859;BME280;55864;49.238;8.092;2023-01-29T09:16:29;100727.28;;;1.30;64.74
68859;BME280;55864;49.238;8.092;2023-01-29T09:18:30;100707.09;;;1.40;64.51
68859;BME280;55864;49.238;8.092;2023-01-29T09:20:31;100694.69;;;1.48;64.45
68859;BME280;55864;49.238;8.092;2023-01-29T09:22:31;100684.13;;;1.54;63.92
68859;BME280;55864;49.238;8.092;2023-01-29T09:24:32;100677.00;;;1.60;63.87
68859;BME280;55864;49.238;8.092;2023-01-29T09:26:32;100673.28;;;1.67;63.97
68859;BME280;55864;49.238;8.092;2023-01-29T09:28:34;100681.78;;;1.71;63.53
68859;BME280;55864;49.238;8.092;2023-01-29T09:30:35;100682.91;;;1.64;61.87
68859;BME280;55864;49.238;8.092;2023-01-29T09:32:35;100674.56;;;1.56;62.21
68859;BME280;55864;49.238;8.092;2023-01-29T09:34:36;100665.41;;;1.47;62.84
68859;BME280;55864;49.238;8.092;2023-01-29T09:36:36;100661.03;;;1.49;63.85
68859;BME280;55864;49.238;8.092;2023-01-29T09:38:37;100655.34;;;1.40;63.40
68859;BME280;55864;49.238;8.092;2023-01-29T09:40:47;100663.19;;;1.37;63.56
68859;BME280;55864;49.238;8.092;2023-01-29T09:42:53;100672.75;;;1.35;64.07
68859;BME280;55864;49.238;8.092;2023-01-29T09:45:01;100675.34;;;1.35;64.97
68859;BME280;55864;49.238;8.092;2023-01-29T09:47:03;100685.53;;;1.39;65.73
68859;BME280;55864;49.238;8.092;2023-01-29T09:49:06;100691.44;;;1.43;64.90
68859;BME280;55864;49.238;8.092;2023-01-29T09:51:14;100689.78;;;1.42;63.37
68859;BME280;55864;49.238;8.092;2023-01-29T09:53:24;100693.25;;;1.41;64.12
68859;BME280;55864;49.238;8.092;2023-01-29T09:55:30;100689.88;;;1.39;64.04
68859;BME280;55864;49.238;8.092;2023-01-29T09:57:40;100696.78;;;1.38;63.97
68859;BME280;55864;49.238;8.092;2023-01-29T09:59:43;100698.53;;;1.38;63.57
68859;BME280;55864;49.238;8.092;2023-01-29T10:01:52;100700.28;;;1.37;63.68
68859;BME280;55864;49.238;8.092;2023-01-29T10:04:21;100704.59;;;1.37;64.13
68859;BME280;55864;49.238;8.092;2023-01-29T10:06:36;100701.13;;;1.38;65.22
68859;BME280;55864;49.238;8.092;2023-01-29T10:09:01;100707.91;;;1.40;64.77
68859;BME280;55864;49.238;8.092;2023-01-29T10:11:14;100707.88;;;1.42;63.92
68859;BME280;55864;49.238;8.092;2023-01-29T10:13:25;100701.94;;;1.38;64.56
68859;BME280;55864;49.238;8.092;2023-01-29T10:15:38;100712.94;;;1.45;65.57
68859;BME280;55864;49.238;8.092;2023-01-29T10:17:53;100718.75;;;1.51;66.68
68859;BME280;55864;49.238;8.092;2023-01-29T10:20:18;100715.94;;;1.57;63.74
68859;BME280;55864;49.238;8.092;2023-01-29T10:22:59;100725.34;;;1.60;63.99
68859;BME280;55864;49.238;8.092;2023-01-29T10:25:05;100714.94;;;1.61;63.96
68859;BME280;55864;49.238;8.092;2023-01-29T10:27:12;100717.72;;;1.55;63.66
68859;BME280;55864;49.238;8.092;2023-01-29T10:29:17;100734.31;;;1.50;64.36
68859;BME280;55864;49.238;8.092;2023-01-29T10:31:23;100717.97;;;1.49;64.66
68859;BME280;55864;49.238;8.092;2023-01-29T10:33:31;100716.25;;;1.48;64.21
68859;BME280;55864;49.238;8.092;2023-01-29T10:35:36;100718.91;;;1.47;64.30
68859;BME280;55864;49.238;8.092;2023-01-29T10:37:40;100702.75;;;1.40;64.71
68859;BME280;55864;49.238;8.092;2023-01-29T10:39:40;100703.72;;;1.38;64.32
68859;BME280;55864;49.238;8.092;2023-01-29T10:41:56;100704.66;;;1.35;64.42
68859;BME280;55864;49.238;8.092;2023-01-29T10:44:07;100700.44;;;1.33;64.71
68859;BME280;55864;49.238;8.092;2023-01-29T10:46:21;100695.25;;;1.33;64.60
68859;BME280;55864;49.238;8.092;2023-01-29T10:48:41;100697.91;;;1.31;65.08
68859;BME280;55864;49.238;8.092;2023-01-29T10:50:47;100697.81;;;1.34;65.08
68859;BME280;55864;49.238;8.092;2023-01-29T10:53:00;100690.84;;;1.36;64.89
68859;BME280;55864;49.238;8.092;2023-01-29T10:55:18;100692.50;;;1.37;65.18
68859;BME280;55864;49.238;8.092;2023-01-29T10:57:32;100699.38;;;1.38;64.59
68859;BME280;55864;49.238;8.092;2023-01-29T10:59:50;100684.91;;;1.33;64.94